createdAt,value
2018-06-22T00:01:58.865Z,10.50
2018-06-22T00:05:09.413Z,10.30
2018-06-22T00:08:20.211Z,10.40
2018-06-22T00:11:30.866Z,10.30
2018-06-22T00:14:41.594Z,10.40
2018-06-22T00:21:02.178Z,10.50
2018-06-22T00:24:12.952Z,10.50
2018-06-22T00:27:23.630Z,10.50
2018-06-22T00:30:34.864Z,10.60
2018-06-22T00:33:45.258Z,10.60
2018-06-22T00:36:55.926Z,10.70
2018-06-22T00:40:06.791Z,10.70
2018-06-22T00:43:17.373Z,10.70
2018-06-22T00:46:27.936Z,10.80
2018-06-22T00:49:37.908Z,10.80
2018-06-22T00:52:48.662Z,10.80
2018-06-22T00:55:59.397Z,10.70
2018-06-22T00:59:09.932Z,10.50
2018-06-22T01:02:20.537Z,10.50
2018-06-22T01:05:30.542Z,10.50
2018-06-22T01:08:41.155Z,10.30
2018-06-22T01:11:51.842Z,10.20
2018-06-22T01:15:01.698Z,10.20
2018-06-22T01:18:11.539Z,10.10
2018-06-22T01:21:22.297Z,10.10
2018-06-22T01:24:32.314Z,10.10
2018-06-22T01:27:42.984Z,10.00
2018-06-22T01:30:53.289Z,10.10
2018-06-22T01:34:03.543Z,10.20
2018-06-22T01:37:14.391Z,10.20
2018-06-22T01:40:24.870Z,10.30
2018-06-22T01:43:34.904Z,10.30
2018-06-22T01:46:45.581Z,10.30
2018-06-22T01:49:56.093Z,10.20
2018-06-22T01:53:07.029Z,10.20
2018-06-22T01:56:17.417Z,10.20
2018-06-22T01:59:27.388Z,10.20
2018-06-22T02:02:38.086Z,10.20
2018-06-22T02:05:48.750Z,10.20
2018-06-22T02:08:59.390Z,10.10
2018-06-22T02:12:09.325Z,10.10
2018-06-22T02:15:20.166Z,10.00
2018-06-22T02:18:30.640Z,10.00
2018-06-22T02:21:41.281Z,10.00
2018-06-22T02:24:51.966Z,10.00
2018-06-22T02:28:02.572Z,9.90
2018-06-22T02:31:13.516Z,9.90
2018-06-22T02:34:23.688Z,9.70
2018-06-22T02:37:34.255Z,9.80
2018-06-22T02:40:45.005Z,9.80
2018-06-22T02:43:54.933Z,9.80
2018-06-22T02:47:05.117Z,9.90
2018-06-22T02:50:15.763Z,9.70
2018-06-22T02:53:26.717Z,9.90
2018-06-22T02:56:37.527Z,9.70
2018-06-22T02:59:47.543Z,9.40
2018-06-22T03:02:57.510Z,9.40
2018-06-22T03:06:07.994Z,9.40
2018-06-22T03:09:18.753Z,9.30
2018-06-22T03:12:29.069Z,9.30
2018-06-22T03:15:39.932Z,9.20
2018-06-22T03:18:50.459Z,9.20
2018-06-22T03:22:01.333Z,9.10
2018-06-22T03:25:12.012Z,9.10
2018-06-22T03:28:22.828Z,9.10
2018-06-22T03:31:33.858Z,9.10
2018-06-22T03:34:44.490Z,9.00
2018-06-22T03:37:55.017Z,9.00
2018-06-22T03:41:06.178Z,8.90
2018-06-22T03:44:16.346Z,9.00
2018-06-22T03:47:27.246Z,9.00
2018-06-22T03:50:37.885Z,9.00
2018-06-22T03:53:48.748Z,9.00
2018-06-22T03:56:58.759Z,8.90
2018-06-22T04:00:09.380Z,8.90
2018-06-22T04:03:20.141Z,9.00
2018-06-22T04:06:30.917Z,9.00
2018-06-22T04:09:41.339Z,9.00
2018-06-22T04:12:51.472Z,8.90
2018-06-22T04:16:02.373Z,9.00
2018-06-22T04:19:13.117Z,8.90
2018-06-22T04:22:23.974Z,9.00
2018-06-22T04:25:34.941Z,8.90
2018-06-22T04:28:45.034Z,8.90
2018-06-22T04:31:56.049Z,8.90
2018-06-22T04:35:06.492Z,9.00
2018-06-22T04:38:16.662Z,9.20
2018-06-22T04:41:27.172Z,9.20
2018-06-22T04:44:38.046Z,9.30
2018-06-22T04:47:47.866Z,9.40
2018-06-22T04:50:57.747Z,9.40
2018-06-22T04:54:07.649Z,9.50
2018-06-22T04:57:18.464Z,9.40
2018-06-22T05:00:29.221Z,9.50
2018-06-22T05:03:39.871Z,9.50
2018-06-22T05:06:50.565Z,9.40
2018-06-22T05:10:01.369Z,9.50
2018-06-22T05:13:11.824Z,9.50
2018-06-22T05:16:22.532Z,9.40
2018-06-22T05:19:33.252Z,9.60
2018-06-22T05:22:44.259Z,9.60
2018-06-22T05:25:54.823Z,9.70
2018-06-22T05:29:05.270Z,9.70
2018-06-22T05:32:16.085Z,9.80
2018-06-22T05:35:26.532Z,9.80
2018-06-22T05:38:36.659Z,9.80
2018-06-22T05:41:47.429Z,9.80
2018-06-22T05:44:57.350Z,9.80
2018-06-22T05:48:08.131Z,9.90
2018-06-22T05:51:19.125Z,9.90
2018-06-22T05:54:29.797Z,9.80
2018-06-22T05:57:40.745Z,9.90
2018-06-22T06:00:52.110Z,9.90
2018-06-22T06:04:02.133Z,9.90
2018-06-22T06:07:12.625Z,9.90
2018-06-22T06:10:22.429Z,10.00
2018-06-22T06:13:32.517Z,10.10
2018-06-22T06:16:42.934Z,10.10
2018-06-22T06:19:53.428Z,10.20
2018-06-22T06:23:04.013Z,10.20
2018-06-22T06:26:15.047Z,10.20
2018-06-22T06:29:25.568Z,10.20
2018-06-22T06:32:36.538Z,10.20
2018-06-22T06:35:46.825Z,10.30
2018-06-22T06:38:57.593Z,10.30
2018-06-22T06:42:10.927Z,10.30
2018-06-22T06:45:21.165Z,10.30
2018-06-22T06:48:31.688Z,10.30
2018-06-22T06:51:41.834Z,10.50
2018-06-22T06:54:51.925Z,10.60
2018-06-22T06:58:02.854Z,10.60
2018-06-22T07:01:13.653Z,10.70
2018-06-22T07:04:24.340Z,10.90
2018-06-22T07:07:35.027Z,11.00
2018-06-22T07:10:45.610Z,10.90
2018-06-22T07:13:56.289Z,10.90
2018-06-22T07:17:07.675Z,10.90
2018-06-22T07:20:17.680Z,10.90
2018-06-22T07:23:28.552Z,11.00
2018-06-22T07:26:39.381Z,11.00
2018-06-22T07:29:49.278Z,10.90
2018-06-22T07:33:00.260Z,11.00
2018-06-22T07:36:10.947Z,11.00
2018-06-22T07:39:20.878Z,11.00
2018-06-22T07:42:31.700Z,10.90
2018-06-22T07:45:42.390Z,10.90
2018-06-22T07:48:53.310Z,10.90
2018-06-22T07:52:04.003Z,10.80
2018-06-22T07:55:14.948Z,10.80
2018-06-22T07:58:25.552Z,10.80
2018-06-22T08:01:36.888Z,10.70
2018-06-22T08:04:47.137Z,10.40
2018-06-22T08:07:58.498Z,10.20
2018-06-22T08:11:08.800Z,10.20
2018-06-22T08:14:19.495Z,10.40
2018-06-22T08:17:30.471Z,10.40
2018-06-22T08:20:40.950Z,10.50
2018-06-22T08:23:51.684Z,10.60
2018-06-22T08:27:02.728Z,10.60
2018-06-22T08:30:13.208Z,10.50
2018-06-22T08:33:23.486Z,10.60
2018-06-22T08:36:40.204Z,10.60
2018-06-22T08:39:50.848Z,10.60
2018-06-22T08:43:01.543Z,10.60
2018-06-22T08:46:11.479Z,10.60
2018-06-22T08:49:21.535Z,10.50
2018-06-22T08:52:31.532Z,10.60
2018-06-22T08:55:41.435Z,10.60
2018-06-22T08:58:52.349Z,10.40
2018-06-22T09:02:03.022Z,10.50
2018-06-22T09:05:13.807Z,10.60
2018-06-22T09:08:23.865Z,10.60
2018-06-22T09:11:33.825Z,10.40
2018-06-22T09:14:44.151Z,10.30
2018-06-22T09:17:54.734Z,10.50
2018-06-22T09:21:05.706Z,10.60
2018-06-22T09:24:16.319Z,10.50
2018-06-22T09:27:26.246Z,10.60
2018-06-22T09:33:47.253Z,10.50
2018-06-22T09:36:57.587Z,10.50
2018-06-22T09:40:08.903Z,10.40
2018-06-22T09:43:19.872Z,10.50
2018-06-22T09:46:29.765Z,10.50
2018-06-22T09:49:40.625Z,10.20
2018-06-22T09:52:50.624Z,10.10
2018-06-22T09:56:01.465Z,10.10
2018-06-22T09:59:12.068Z,10.20
2018-06-22T10:02:22.797Z,10.00
2018-06-22T10:05:33.916Z,10.40
2018-06-22T10:08:44.418Z,10.40
2018-06-22T10:11:54.728Z,10.30
2018-06-22T10:15:04.878Z,10.40
2018-06-22T10:18:15.640Z,10.40
2018-06-22T10:21:25.841Z,10.20
2018-06-22T10:24:36.448Z,10.20
2018-06-22T10:27:47.285Z,9.80
2018-06-22T10:30:58.121Z,9.80
2018-06-22T10:34:09.162Z,9.90
2018-06-22T10:37:19.353Z,9.90
2018-06-22T10:40:30.144Z,10.00
2018-06-22T10:43:40.221Z,10.00
2018-06-22T10:46:50.729Z,9.90
2018-06-22T10:50:01.149Z,10.00
2018-06-22T10:53:12.105Z,10.10
2018-06-22T10:56:22.610Z,10.10
2018-06-22T10:59:33.420Z,9.90
2018-06-22T11:02:43.956Z,9.90
2018-06-22T11:05:54.709Z,9.70
2018-06-22T11:09:09.174Z,9.70
2018-06-22T11:12:19.477Z,9.90
2018-06-22T11:15:30.351Z,9.70
2018-06-22T11:18:40.410Z,9.70
2018-06-22T11:21:51.124Z,9.70
2018-06-22T11:25:01.906Z,9.80
2018-06-22T11:28:12.862Z,9.80
2018-06-22T11:31:23.477Z,9.60
2018-06-22T11:34:33.736Z,9.60
2018-06-22T11:37:44.192Z,9.50
2018-06-22T11:40:55.036Z,9.40
2018-06-22T11:44:05.781Z,9.70
2018-06-22T11:47:16.590Z,9.80
2018-06-22T11:50:27.600Z,9.80
2018-06-22T11:53:38.355Z,9.80
2018-06-22T11:56:49.343Z,9.80
2018-06-22T12:00:00.390Z,9.90
2018-06-22T12:03:10.917Z,10.00
2018-06-22T12:06:20.825Z,10.00
2018-06-22T12:09:30.704Z,10.10
2018-06-22T12:12:40.700Z,10.20
2018-06-22T12:15:51.404Z,10.10
2018-06-22T12:19:01.411Z,10.00
2018-06-22T12:22:11.504Z,9.90
2018-06-22T12:25:22.294Z,9.90
2018-06-22T12:28:32.796Z,9.90
2018-06-22T12:31:43.541Z,10.00
2018-06-22T12:34:54.588Z,9.90
2018-06-22T12:38:05.505Z,9.90
2018-06-22T12:41:16.267Z,9.90
2018-06-22T12:44:26.637Z,10.00
2018-06-22T12:47:36.612Z,10.00
2018-06-22T12:50:46.700Z,10.10
2018-06-22T12:53:57.681Z,10.30
2018-06-22T12:57:08.530Z,10.50
2018-06-22T13:00:19.694Z,10.70
2018-06-22T13:03:30.057Z,10.90
2018-06-22T13:06:40.881Z,10.80
2018-06-22T13:09:51.590Z,10.90
2018-06-22T13:13:02.610Z,10.90
2018-06-22T13:16:13.392Z,11.10
2018-06-22T13:19:23.693Z,10.90
2018-06-22T13:22:34.201Z,11.10
2018-06-22T13:25:44.105Z,11.20
2018-06-22T13:28:54.920Z,11.30
2018-06-22T13:32:05.848Z,11.20
2018-06-22T13:35:17.066Z,11.30
2018-06-22T13:38:27.261Z,11.50
2018-06-22T13:41:38.404Z,11.60
2018-06-22T13:44:48.832Z,11.60
2018-06-22T13:47:59.486Z,11.60
2018-06-22T13:51:11.617Z,11.70
2018-06-22T13:54:22.248Z,11.60
2018-06-22T13:57:33.038Z,11.70
2018-06-22T14:00:43.781Z,11.90
2018-06-22T14:03:59.996Z,12.10
2018-06-22T14:07:10.550Z,12.30
2018-06-22T14:10:21.187Z,12.40
2018-06-22T14:13:32.132Z,12.40
2018-06-22T14:16:42.829Z,12.40
2018-06-22T14:19:53.136Z,12.70
2018-06-22T14:23:03.869Z,13.00
2018-06-22T14:26:14.625Z,13.30
2018-06-22T14:29:25.168Z,13.30
2018-06-22T14:32:35.994Z,13.20
2018-06-22T14:35:46.566Z,13.20
2018-06-22T14:38:56.848Z,13.30
2018-06-22T14:42:07.457Z,13.40
2018-06-22T14:45:18.218Z,13.70
2018-06-22T14:48:28.797Z,13.90
2018-06-22T14:51:39.463Z,13.90
2018-06-22T14:54:55.500Z,13.60
2018-06-22T14:58:11.503Z,13.70
2018-06-22T15:01:26.985Z,14.00
2018-06-22T15:04:42.450Z,13.80
2018-06-22T15:07:56.128Z,13.50
2018-06-22T15:11:06.788Z,13.50
2018-06-22T15:14:17.427Z,13.90
2018-06-22T15:17:28.199Z,14.10
2018-06-22T15:20:38.944Z,14.00
2018-06-22T15:23:49.497Z,14.20
2018-06-22T15:26:59.393Z,14.40
2018-06-22T15:30:09.589Z,14.50
2018-06-22T15:33:25.057Z,14.60
2018-06-22T15:36:42.213Z,14.60
2018-06-22T15:44:16.294Z,14.30
2018-06-22T15:48:29.543Z,14.30
2018-06-22T15:51:45.489Z,14.20
2018-06-22T15:55:10.049Z,14.20
2018-06-22T15:58:21.918Z,14.20
2018-06-22T16:01:32.781Z,13.90
2018-06-22T16:04:43.562Z,13.80
2018-06-22T16:07:54.198Z,13.40
2018-06-22T16:11:04.855Z,13.10
2018-06-22T16:14:20.788Z,12.90
2018-06-22T16:17:36.618Z,12.70
2018-06-22T16:20:52.302Z,13.10
2018-06-22T16:24:07.999Z,13.20
2018-06-22T16:27:18.927Z,13.10
2018-06-22T16:30:29.446Z,13.00
2018-06-22T16:33:45.379Z,12.80
2018-06-22T16:36:56.168Z,12.80
2018-06-22T16:40:06.718Z,12.80
2018-06-22T16:43:17.196Z,13.10
2018-06-22T16:46:28.013Z,13.20
2018-06-22T16:49:38.711Z,13.40
2018-06-22T16:52:48.912Z,13.30
2018-06-22T16:55:59.458Z,13.70
2018-06-22T16:59:10.423Z,13.80
2018-06-22T17:02:20.934Z,14.00
2018-06-22T17:05:31.785Z,14.00
2018-06-22T17:08:48.138Z,14.00
2018-06-22T17:12:03.590Z,14.00
2018-06-22T17:15:19.454Z,14.00
2018-06-22T17:18:35.346Z,13.90
2018-06-22T17:21:45.784Z,13.90
2018-06-22T17:24:56.580Z,13.70
2018-06-22T17:28:07.356Z,13.80
2018-06-22T17:31:17.801Z,13.80
2018-06-22T17:34:28.200Z,13.90
2018-06-22T17:37:39.401Z,13.70
2018-06-22T17:40:50.541Z,13.70
2018-06-22T17:44:00.796Z,13.70
2018-06-22T17:47:11.809Z,13.70
2018-06-22T17:50:27.733Z,13.80
2018-06-22T17:53:38.101Z,13.70
2018-06-22T17:56:48.997Z,13.80
2018-06-22T18:00:05.153Z,13.80
2018-06-22T18:03:21.064Z,13.80
2018-06-22T18:06:37.726Z,13.80
2018-06-22T18:09:53.589Z,13.80
2018-06-22T18:13:04.278Z,13.90
2018-06-22T18:16:14.648Z,14.00
2018-06-22T18:19:25.237Z,13.90
2018-06-22T18:22:35.282Z,13.90
2018-06-22T18:25:46.068Z,13.70
2018-06-22T18:28:56.042Z,13.60
2018-06-22T18:32:06.817Z,13.60
2018-06-22T18:35:18.043Z,13.60
2018-06-22T18:38:29.098Z,13.60
2018-06-22T18:41:39.504Z,13.60
2018-06-22T18:44:50.079Z,13.50
2018-06-22T18:48:00.347Z,13.60
2018-06-22T18:51:11.518Z,13.60
2018-06-22T18:54:27.545Z,13.40
2018-06-22T18:57:43.216Z,13.40
2018-06-22T19:00:58.613Z,13.40
2018-06-22T19:04:09.182Z,13.20
2018-06-22T19:07:19.732Z,13.20
2018-06-22T19:10:30.493Z,13.20
2018-06-22T19:13:41.556Z,13.10
2018-06-22T19:16:51.929Z,13.00
2018-06-22T19:20:02.793Z,13.00
2018-06-22T19:23:13.720Z,13.00
2018-06-22T19:26:24.662Z,12.80
2018-06-22T19:29:35.690Z,12.80
2018-06-22T19:32:47.992Z,12.80
2018-06-22T19:35:58.741Z,12.80
2018-06-22T19:39:10.849Z,12.60
2018-06-22T19:42:21.683Z,12.60
2018-06-22T19:45:38.489Z,12.50
2018-06-22T19:48:54.294Z,12.60
2018-06-22T19:52:10.086Z,12.60
2018-06-22T19:55:20.302Z,12.60
2018-06-22T19:58:31.300Z,12.50
2018-06-22T20:01:41.681Z,12.40
2018-06-22T20:04:52.651Z,12.40
2018-06-22T20:08:03.265Z,12.40
2018-06-22T20:11:13.836Z,12.40
2018-06-22T20:14:25.708Z,12.30
2018-06-22T20:17:36.202Z,12.30
2018-06-22T20:20:46.956Z,12.30
2018-06-22T20:23:56.841Z,12.10
2018-06-22T20:27:06.767Z,12.10
2018-06-22T20:30:17.740Z,12.20
2018-06-22T20:33:28.820Z,12.20
2018-06-22T20:36:44.622Z,12.20
2018-06-22T20:40:00.118Z,12.10
2018-06-22T20:43:15.932Z,12.00
2018-06-22T20:46:32.554Z,11.80
2018-06-22T20:49:48.685Z,11.80
2018-06-22T20:52:59.104Z,11.80
2018-06-22T20:56:11.172Z,11.80
2018-06-22T20:59:21.791Z,11.70
2018-06-22T21:02:32.312Z,11.70
2018-06-22T21:05:42.952Z,11.70
2018-06-22T21:08:53.214Z,11.70
2018-06-22T21:12:03.181Z,11.80
2018-06-22T21:15:14.164Z,11.70
2018-06-22T21:18:24.620Z,11.80
2018-06-22T21:21:40.816Z,11.60
2018-06-22T21:24:51.049Z,11.60
2018-06-22T21:28:07.455Z,11.60
2018-06-22T21:31:22.902Z,11.60
2018-06-22T21:34:34.238Z,11.60
2018-06-22T21:37:50.244Z,11.50
2018-06-22T21:41:01.196Z,11.60
2018-06-22T21:44:11.265Z,11.50
2018-06-22T21:47:21.935Z,11.60
2018-06-22T21:50:31.986Z,11.50
2018-06-22T21:53:42.436Z,11.50
2018-06-22T21:56:52.627Z,11.50
2018-06-22T22:00:03.578Z,11.50
2018-06-22T22:03:14.389Z,11.40
2018-06-22T22:06:24.713Z,11.40
2018-06-22T22:09:41.389Z,11.40
2018-06-22T22:12:51.278Z,11.40
2018-06-22T22:16:01.923Z,11.40
2018-06-22T22:19:14.408Z,11.50
2018-06-22T22:22:24.538Z,11.50
2018-06-22T22:25:35.203Z,11.40
2018-06-22T22:28:46.048Z,11.50
2018-06-22T22:31:56.848Z,11.40
2018-06-22T22:35:07.549Z,11.30
2018-06-22T22:38:18.207Z,11.30
2018-06-22T22:41:29.193Z,11.40
2018-06-22T22:44:39.757Z,11.30
2018-06-22T22:47:50.470Z,11.30
2018-06-22T22:51:01.586Z,11.30
2018-06-22T22:54:12.128Z,11.30
2018-06-22T22:57:22.822Z,11.30
2018-06-22T23:00:33.638Z,11.30
2018-06-22T23:03:44.224Z,11.40
2018-06-22T23:06:55.041Z,11.40
2018-06-22T23:10:05.402Z,11.30
2018-06-22T23:13:15.611Z,11.30
2018-06-22T23:16:25.696Z,11.30
2018-06-22T23:19:36.217Z,11.40
2018-06-22T23:22:57.464Z,11.40
2018-06-22T23:26:08.157Z,11.30
2018-06-22T23:29:18.865Z,11.30
2018-06-22T23:32:29.417Z,11.40
2018-06-22T23:35:40.229Z,11.40
2018-06-22T23:38:51.026Z,11.30
2018-06-22T23:42:01.813Z,11.30
2018-06-22T23:45:12.067Z,11.30
2018-06-22T23:48:22.658Z,11.30
2018-06-22T23:51:33.459Z,11.30
2018-06-22T23:54:44.352Z,11.30
2018-06-22T23:57:54.171Z,11.30
